sensor_id;sensor_type;location;lat;lon;timestamp;pressure;altitude;pressure_sealevel;temperature;humidity
45621;BME280;31345;51.522;10.702;2022-09-30T00:01:10;98326.69;;;4.67;100.00
45621;BME280;31345;51.522;10.702;2022-09-30T00:03:39;98334.34;;;4.52;100.00
45621;BME280;31345;51.522;10.702;2022-09-30T00:06:07;98328.59;;;4.47;100.00
45621;BME280;31345;51.522;10.702;2022-09-30T00:08:35;98334.47;;;4.51;100.00
45621;BME280;31345;51.522;10.702;2022-09-30T00:11:05;98324.09;;;4.67;100.00
45621;BME280;31345;51.522;10.702;2022-09-30T00:13:35;98330.53;;;4.59;100.00
45621;BME280;31345;51.522;10.702;2022-09-30T00:16:04;98330.31;;;4.30;100.00
45621;BME280;31345;51.522;10.702;2022-09-30T00:18:32;98333.19;;;4.08;100.00
45621;BME280;31345;51.522;10.702;2022-09-30T00:21:01;98339.44;;;4.38;100.00
45621;BME280;31345;51.522;10.702;2022-09-30T00:23:29;98341.25;;;4.19;100.00
45621;BME280;31345;51.522;10.702;2022-09-30T00:25:58;98342.31;;;4.15;100.00
45621;BME280;31345;51.522;10.702;2022-09-30T00:28:27;98343.41;;;4.27;100.00
45621;BME280;31345;51.522;10.702;2022-09-30T00:30:57;98355.13;;;4.34;100.00
45621;BME280;31345;51.522;10.702;2022-09-30T00:33:25;98349.16;;;4.50;100.00
45621;BME280;31345;51.522;10.702;2022-09-30T00:35:53;98350.72;;;4.53;100.00
45621;BME280;31345;51.522;10.702;2022-09-30T00:38:22;98349.22;;;4.49;100.00
45621;BME280;31345;51.522;10.702;2022-09-30T00:40:50;98348.84;;;4.23;100.00
45621;BME280;31345;51.522;10.702;2022-09-30T00:43:20;98349.56;;;4.08;100.00
45621;BME280;31345;51.522;10.702;2022-09-30T00:45:50;98344.56;;;4.55;100.00
45621;BME280;31345;51.522;10.702;2022-09-30T00:48:25;98346.34;;;4.37;100.00
45621;BME280;31345;51.522;10.702;2022-09-30T00:50:57;98346.88;;;4.44;100.00
45621;BME280;31345;51.522;10.702;2022-09-30T00:53:29;98348.94;;;4.21;100.00
45621;BME280;31345;51.522;10.702;2022-09-30T00:56:00;98353.31;;;4.53;100.00
45621;BME280;31345;51.522;10.702;2022-09-30T00:58:30;98346.34;;;4.37;100.00
45621;BME280;31345;51.522;10.702;2022-09-30T01:01:00;98339.44;;;4.38;100.00
45621;BME280;31345;51.522;10.702;2022-09-30T01:03:30;98342.25;;;4.33;100.00
45621;BME280;31345;51.522;10.702;2022-09-30T01:06:01;98340.38;;;4.19;100.00
45621;BME280;31345;51.522;10.702;2022-09-30T01:08:32;98334.16;;;4.23;100.00
45621;BME280;31345;51.522;10.702;2022-09-30T01:11:01;98329.91;;;4.38;100.00
45621;BME280;31345;51.522;10.702;2022-09-30T01:13:30;98333.56;;;4.34;100.00
45621;BME280;31345;51.522;10.702;2022-09-30T01:16:17;98330.19;;;4.16;100.00
45621;BME280;31345;51.522;10.702;2022-09-30T01:18:57;98334.78;;;4.44;100.00
45621;BME280;31345;51.522;10.702;2022-09-30T01:21:54;98331.41;;;4.42;100.00
45621;BME280;31345;51.522;10.702;2022-09-30T01:24:38;98339.22;;;4.08;100.00
45621;BME280;31345;51.522;10.702;2022-09-30T01:27:15;98329.44;;;4.14;100.00
45621;BME280;31345;51.522;10.702;2022-09-30T01:30:16;98329.03;;;4.21;100.00
45621;BME280;31345;51.522;10.702;2022-09-30T01:33:04;98325.66;;;4.37;100.00
45621;BME280;31345;51.522;10.702;2022-09-30T01:35:39;98325.91;;;4.32;100.00
45621;BME280;31345;51.522;10.702;2022-09-30T01:38:16;98324.88;;;4.19;100.00
45621;BME280;31345;51.522;10.702;2022-09-30T01:40:54;98317.63;;;4.26;100.00
45621;BME280;31345;51.522;10.702;2022-09-30T01:43:31;98318.59;;;4.41;100.00
45621;BME280;31345;51.522;10.702;2022-09-30T01:46:07;98321.47;;;4.34;100.00
45621;BME280;31345;51.522;10.702;2022-09-30T01:48:45;98319.69;;;4.19;100.00
45621;BME280;31345;51.522;10.702;2022-09-30T01:51:20;98326.44;;;4.05;100.00
45621;BME280;31345;51.522;10.702;2022-09-30T01:53:55;98330.44;;;4.11;100.00
45621;BME280;31345;51.522;10.702;2022-09-30T01:56:27;98323.88;;;4.21;100.00
45621;BME280;31345;51.522;10.702;2022-09-30T01:59:01;98337.97;;;4.16;100.00
45621;BME280;31345;51.522;10.702;2022-09-30T02:01:33;98343.84;;;4.02;100.00
45621;BME280;31345;51.522;10.702;2022-09-30T02:04:08;98346.84;;;3.59;100.00
45621;BME280;31345;51.522;10.702;2022-09-30T02:06:41;98348.66;;;3.74;100.00
45621;BME280;31345;51.522;10.702;2022-09-30T02:09:12;98348.38;;;3.80;100.00
45621;BME280;31345;51.522;10.702;2022-09-30T02:11:41;98359.63;;;3.97;100.00
45621;BME280;31345;51.522;10.702;2022-09-30T02:14:14;98350.63;;;3.87;100.00
45621;BME280;31345;51.522;10.702;2022-09-30T02:16:47;98359.44;;;3.47;100.00
45621;BME280;31345;51.522;10.702;2022-09-30T02:19:21;98362.19;;;3.62;100.00
45621;BME280;31345;51.522;10.702;2022-09-30T02:21:55;98359.44;;;3.47;100.00
45621;BME280;31345;51.522;10.702;2022-09-30T02:24:28;98367.59;;;3.57;100.00
45621;BME280;31345;51.522;10.702;2022-09-30T02:26:59;98369.63;;;3.33;100.00
45621;BME280;31345;51.522;10.702;2022-09-30T02:29:30;98366.72;;;3.21;100.00
45621;BME280;31345;51.522;10.702;2022-09-30T02:32:12;98362.75;;;3.14;100.00
45621;BME280;31345;51.522;10.702;2022-09-30T02:34:46;98369.94;;;3.07;100.00
45621;BME280;31345;51.522;10.702;2022-09-30T02:37:19;98362.06;;;2.91;100.00
45621;BME280;31345;51.522;10.702;2022-09-30T02:39:51;98369.75;;;2.92;100.00
45621;BME280;31345;51.522;10.702;2022-09-30T02:42:22;98372.19;;;2.96;100.00
45621;BME280;31345;51.522;10.702;2022-09-30T02:44:51;98370.84;;;2.87;100.00
45621;BME280;31345;51.522;10.702;2022-09-30T02:47:25;98370.09;;;2.85;100.00
45621;BME280;31345;51.522;10.702;2022-09-30T02:53:20;98376.56;;;2.94;100.00
45621;BME280;31345;51.522;10.702;2022-09-30T02:56:01;98380.22;;;3.09;100.00
45621;BME280;31345;51.522;10.702;2022-09-30T02:58:34;98373.00;;;2.96;100.00
45621;BME280;31345;51.522;10.702;2022-09-30T03:01:06;98376.84;;;3.07;100.00
45621;BME280;31345;51.522;10.702;2022-09-30T03:03:37;98370.97;;;3.22;100.00
45621;BME280;31345;51.522;10.702;2022-09-30T03:06:07;98375.44;;;3.19;100.00
45621;BME280;31345;51.522;10.702;2022-09-30T03:08:37;98383.47;;;2.74;100.00
45621;BME280;31345;51.522;10.702;2022-09-30T03:11:05;98391.56;;;2.85;100.00
45621;BME280;31345;51.522;10.702;2022-09-30T03:14:01;98394.34;;;3.38;100.00
45621;BME280;31345;51.522;10.702;2022-09-30T03:16:52;98394.63;;;3.32;100.00
45621;BME280;31345;51.522;10.702;2022-09-30T03:19:35;98394.16;;;3.24;100.00
45621;BME280;31345;51.522;10.702;2022-09-30T03:22:26;98396.19;;;3.17;100.00
45621;BME280;31345;51.522;10.702;2022-09-30T03:25:16;98400.69;;;3.12;100.00
45621;BME280;31345;51.522;10.702;2022-09-30T03:27:59;98402.88;;;3.02;100.00
45621;BME280;31345;51.522;10.702;2022-09-30T03:30:32;98405.88;;;3.31;100.00
45621;BME280;31345;51.522;10.702;2022-09-30T03:33:08;98403.63;;;3.42;100.00
45621;BME280;31345;51.522;10.702;2022-09-30T03:35:43;98413.81;;;3.26;100.00
45621;BME280;31345;51.522;10.702;2022-09-30T03:38:21;98412.09;;;3.27;100.00
45621;BME280;31345;51.522;10.702;2022-09-30T03:40:58;98414.25;;;3.17;100.00
45621;BME280;31345;51.522;10.702;2022-09-30T03:43:32;98414.63;;;2.90;100.00
45621;BME280;31345;51.522;10.702;2022-09-30T03:46:10;98416.97;;;2.75;100.00
45621;BME280;31345;51.522;10.702;2022-09-30T03:48:42;98419.09;;;2.86;100.00
45621;BME280;31345;51.522;10.702;2022-09-30T03:51:12;98411.19;;;2.89;100.00
45621;BME280;31345;51.522;10.702;2022-09-30T03:53:40;98423.13;;;2.92;100.00
45621;BME280;31345;51.522;10.702;2022-09-30T03:56:10;98413.41;;;3.16;100.00
45621;BME280;31345;51.522;10.702;2022-09-30T03:58:40;98425.63;;;2.94;100.00
45621;BME280;31345;51.522;10.702;2022-09-30T04:01:16;98414.63;;;2.90;100.00
45621;BME280;31345;51.522;10.702;2022-09-30T04:03:46;98421.81;;;3.02;100.00
45621;BME280;31345;51.522;10.702;2022-09-30T04:06:18;98424.81;;;3.12;100.00
45621;BME280;31345;51.522;10.702;2022-09-30T04:08:47;98424.72;;;3.14;100.00
45621;BME280;31345;51.522;10.702;2022-09-30T04:11:16;98430.72;;;2.76;100.00
45621;BME280;31345;51.522;10.702;2022-09-30T04:13:44;98435.88;;;2.76;100.00
45621;BME280;31345;51.522;10.702;2022-09-30T04:16:12;98439.94;;;3.01;100.00
45621;BME280;31345;51.522;10.702;2022-09-30T04:18:39;98443.00;;;3.09;100.00
45621;BME280;31345;51.522;10.702;2022-09-30T04:21:09;98447.34;;;3.28;100.00
45621;BME280;31345;51.522;10.702;2022-09-30T04:23:38;98438.94;;;3.42;100.00
45621;BME280;31345;51.522;10.702;2022-09-30T04:26:10;98442.66;;;3.36;100.00
45621;BME280;31345;51.522;10.702;2022-09-30T04:28:40;98445.19;;;3.19;100.00
45621;BME280;31345;51.522;10.702;2022-09-30T04:31:09;98447.91;;;3.15;100.00
45621;BME280;31345;51.522;10.702;2022-09-30T04:33:37;98451.41;;;3.14;100.00
45621;BME280;31345;51.522;10.702;2022-09-30T04:36:06;98445.47;;;3.12;100.00
45621;BME280;31345;51.522;10.702;2022-09-30T04:38:33;98447.47;;;3.25;100.00
45621;BME280;31345;51.522;10.702;2022-09-30T04:41:02;98451.63;;;2.90;100.00
45621;BME280;31345;51.522;10.702;2022-09-30T04:43:31;98453.97;;;2.76;100.00
45621;BME280;31345;51.522;10.702;2022-09-30T04:46:00;98462.88;;;2.88;100.00
45621;BME280;31345;51.522;10.702;2022-09-30T04:48:28;98468.75;;;2.51;100.00
45621;BME280;31345;51.522;10.702;2022-09-30T04:50:57;98467.66;;;2.57;100.00
45621;BME280;31345;51.522;10.702;2022-09-30T04:53:26;98471.13;;;2.77;100.00
45621;BME280;31345;51.522;10.702;2022-09-30T04:55:57;98467.78;;;2.54;100.00
45621;BME280;31345;51.522;10.702;2022-09-30T04:58:27;98474.50;;;2.37;100.00
45621;BME280;31345;51.522;10.702;2022-09-30T05:01:03;98474.59;;;2.57;100.00
45621;BME280;31345;51.522;10.702;2022-09-30T05:03:34;98478.03;;;2.56;100.00
45621;BME280;31345;51.522;10.702;2022-09-30T05:06:02;98485.41;;;2.65;100.00
45621;BME280;31345;51.522;10.702;2022-09-30T05:08:31;98487.66;;;2.73;100.00
45621;BME280;31345;51.522;10.702;2022-09-30T05:11:00;98488.06;;;2.43;100.00
45621;BME280;31345;51.522;10.702;2022-09-30T05:13:30;98492.81;;;2.73;100.00
45621;BME280;31345;51.522;10.702;2022-09-30T05:15:58;98498.25;;;2.67;100.00
45621;BME280;31345;51.522;10.702;2022-09-30T05:18:28;98500.00;;;2.45;100.00
45621;BME280;31345;51.522;10.702;2022-09-30T05:20:56;98493.75;;;2.51;100.00
45621;BME280;31345;51.522;10.702;2022-09-30T05:23:26;98495.22;;;2.57;100.00
45621;BME280;31345;51.522;10.702;2022-09-30T05:25:58;98500.97;;;2.63;100.00
45621;BME280;31345;51.522;10.702;2022-09-30T05:28:25;98495.78;;;2.63;100.00
45621;BME280;31345;51.522;10.702;2022-09-30T05:30:55;98504.75;;;2.55;100.00
45621;BME280;31345;51.522;10.702;2022-09-30T05:33:24;98503.59;;;2.62;100.00
45621;BME280;31345;51.522;10.702;2022-09-30T05:35:54;98506.38;;;2.57;100.00
45621;BME280;31345;51.522;10.702;2022-09-30T05:38:22;98515.81;;;2.58;100.00
45621;BME280;31345;51.522;10.702;2022-09-30T05:40:50;98510.50;;;2.40;100.00
45621;BME280;31345;51.522;10.702;2022-09-30T05:43:18;98514.28;;;2.32;100.00
45621;BME280;31345;51.522;10.702;2022-09-30T05:45:51;98520.88;;;2.39;100.00
45621;BME280;31345;51.522;10.702;2022-09-30T05:48:19;98525.28;;;2.37;100.00
45621;BME280;31345;51.522;10.702;2022-09-30T05:50:47;98518.47;;;2.57;100.00
45621;BME280;31345;51.522;10.702;2022-09-30T05:53:17;98522.25;;;2.69;100.00
45621;BME280;31345;51.522;10.702;2022-09-30T05:55:46;98535.34;;;2.85;100.00
45621;BME280;31345;51.522;10.702;2022-09-30T05:58:16;98529.41;;;2.83;100.00
45621;BME280;31345;51.522;10.702;2022-09-30T06:00:45;98541.44;;;3.03;100.00
45621;BME280;31345;51.522;10.702;2022-09-30T06:03:14;98542.44;;;3.00;100.00
45621;BME280;31345;51.522;10.702;2022-09-30T06:05:42;98540.34;;;2.88;100.00
45621;BME280;31345;51.522;10.702;2022-09-30T06:08:11;98553.03;;;2.73;100.00
45621;BME280;31345;51.522;10.702;2022-09-30T06:10:41;98556.84;;;2.64;100.00
45621;BME280;31345;51.522;10.702;2022-09-30T06:13:09;98557.97;;;2.57;100.00
45621;BME280;31345;51.522;10.702;2022-09-30T06:15:37;98560.25;;;2.65;100.00
45621;BME280;31345;51.522;10.702;2022-09-30T06:18:07;98563.28;;;2.75;100.00
45621;BME280;31345;51.522;10.702;2022-09-30T06:20:35;98572.59;;;2.79;100.00
45621;BME280;31345;51.522;10.702;2022-09-30T06:23:03;98573.47;;;2.57;100.00
45621;BME280;31345;51.522;10.702;2022-09-30T06:25:31;98579.41;;;2.59;100.00
45621;BME280;31345;51.522;10.702;2022-09-30T06:28:01;98576.63;;;2.64;100.00
45621;BME280;31345;51.522;10.702;2022-09-30T06:30:29;98569.56;;;2.69;100.00
45621;BME280;31345;51.522;10.702;2022-09-30T06:32:57;98573.63;;;2.75;100.00
45621;BME280;31345;51.522;10.702;2022-09-30T06:35:26;98576.44;;;2.89;100.00
45621;BME280;31345;51.522;10.702;2022-09-30T06:37:54;98583.41;;;3.08;100.00
45621;BME280;31345;51.522;10.702;2022-09-30T06:40:22;98584.44;;;3.04;100.00
45621;BME280;31345;51.522;10.702;2022-09-30T06:42:57;98583.72;;;3.21;100.00
45621;BME280;31345;51.522;10.702;2022-09-30T06:45:27;98585.25;;;3.25;100.00
45621;BME280;31345;51.522;10.702;2022-09-30T06:47:55;98590.84;;;3.35;100.00
45621;BME280;31345;51.522;10.702;2022-09-30T06:50:23;98589.69;;;3.62;100.00
45621;BME280;31345;51.522;10.702;2022-09-30T06:52:51;98587.81;;;3.85;100.00
45621;BME280;31345;51.522;10.702;2022-09-30T06:55:23;98594.00;;;4.00;100.00
45621;BME280;31345;51.522;10.702;2022-09-30T06:57:52;98601.94;;;4.14;100.00
45621;BME280;31345;51.522;10.702;2022-09-30T07:00:23;98601.53;;;4.41;100.00
45621;BME280;31345;51.522;10.702;2022-09-30T07:02:52;98598.78;;;4.62;100.00
45621;BME280;31345;51.522;10.702;2022-09-30T07:05:20;98589.13;;;4.83;100.00
45621;BME280;31345;51.522;10.702;2022-09-30T07:07:48;98596.72;;;5.04;100.00
45621;BME280;31345;51.522;10.702;2022-09-30T07:10:17;98589.22;;;5.16;100.00
45621;BME280;31345;51.522;10.702;2022-09-30T07:12:48;98604.41;;;5.23;100.00
45621;BME280;31345;51.522;10.702;2022-09-30T07:15:16;98599.31;;;5.38;100.00
45621;BME280;31345;51.522;10.702;2022-09-30T07:17:49;98605.56;;;5.52;100.00
45621;BME280;31345;51.522;10.702;2022-09-30T07:20:18;98598.53;;;5.70;100.00
45621;BME280;31345;51.522;10.702;2022-09-30T07:22:46;98600.81;;;5.92;100.00
45621;BME280;31345;51.522;10.702;2022-09-30T07:25:15;98600.78;;;6.08;100.00
45621;BME280;31345;51.522;10.702;2022-09-30T07:27:43;98604.22;;;6.25;100.00
45621;BME280;31345;51.522;10.702;2022-09-30T07:30:12;98606.44;;;6.47;100.00
45621;BME280;31345;51.522;10.702;2022-09-30T07:32:39;98604.66;;;6.48;100.00
45621;BME280;31345;51.522;10.702;2022-09-30T07:35:07;98601.25;;;6.78;100.00
45621;BME280;31345;51.522;10.702;2022-09-30T07:37:37;98611.31;;;6.99;100.00
45621;BME280;31345;51.522;10.702;2022-09-30T07:40:07;98602.13;;;7.22;100.00
45621;BME280;31345;51.522;10.702;2022-09-30T07:42:36;98605.69;;;7.36;100.00
45621;BME280;31345;51.522;10.702;2022-09-30T07:45:10;98600.19;;;7.40;100.00
45621;BME280;31345;51.522;10.702;2022-09-30T07:47:44;98599.28;;;7.56;100.00
45621;BME280;31345;51.522;10.702;2022-09-30T07:50:12;98605.41;;;7.69;100.00
45621;BME280;31345;51.522;10.702;2022-09-30T07:52:42;98614.22;;;7.81;100.00
45621;BME280;31345;51.522;10.702;2022-09-30T07:55:10;98616.81;;;7.96;100.00
45621;BME280;31345;51.522;10.702;2022-09-30T07:57:37;98622.63;;;8.14;100.00
45621;BME280;31345;51.522;10.702;2022-09-30T08:00:06;98617.66;;;8.24;100.00
45621;BME280;31345;51.522;10.702;2022-09-30T08:02:38;98617.47;;;8.27;100.00
45621;BME280;31345;51.522;10.702;2022-09-30T08:05:06;98623.53;;;8.41;100.00
45621;BME280;31345;51.522;10.702;2022-09-30T08:07:33;98628.94;;;8.78;100.00
45621;BME280;31345;51.522;10.702;2022-09-30T08:10:03;98625.94;;;8.84;100.00
45621;BME280;31345;51.522;10.702;2022-09-30T08:12:30;98626.38;;;8.91;100.00
45621;BME280;31345;51.522;10.702;2022-09-30T08:14:58;98627.00;;;9.08;100.00
45621;BME280;31345;51.522;10.702;2022-09-30T08:17:26;98636.94;;;9.16;100.00
45621;BME280;31345;51.522;10.702;2022-09-30T08:19:54;98631.94;;;9.26;100.00
45621;BME280;31345;51.522;10.702;2022-09-30T08:22:23;98624.03;;;9.27;100.00
45621;BME280;31345;51.522;10.702;2022-09-30T08:24:52;98631.50;;;9.45;100.00
45621;BME280;31345;51.522;10.702;2022-09-30T08:27:22;98631.81;;;9.66;100.00
45621;BME280;31345;51.522;10.702;2022-09-30T08:29:52;98631.25;;;9.87;99.49
45621;BME280;31345;51.522;10.702;2022-09-30T08:32:23;98636.97;;;9.92;100.00
45621;BME280;31345;51.522;10.702;2022-09-30T08:34:53;98630.19;;;9.89;99.38
45621;BME280;31345;51.522;10.702;2022-09-30T08:37:22;98632.38;;;9.96;99.36
45621;BME280;31345;51.522;10.702;2022-09-30T08:39:50;98632.13;;;10.12;98.65
45621;BME280;31345;51.522;10.702;2022-09-30T08:42:34;98633.31;;;10.32;99.01
45621;BME280;31345;51.522;10.702;2022-09-30T08:45:19;98637.09;;;10.52;99.47
45621;BME280;31345;51.522;10.702;2022-09-30T08:47:54;98625.19;;;10.73;100.00
45621;BME280;31345;51.522;10.702;2022-09-30T08:50:29;98633.06;;;10.84;98.80
45621;BME280;31345;51.522;10.702;2022-09-30T08:53:06;98633.88;;;10.85;97.71
45621;BME280;31345;51.522;10.702;2022-09-30T08:55:39;98634.28;;;11.03;96.93
45621;BME280;31345;51.522;10.702;2022-09-30T08:58:17;98634.44;;;11.01;94.99
45621;BME280;31345;51.522;10.702;2022-09-30T09:00:47;98644.44;;;11.19;95.73
45621;BME280;31345;51.522;10.702;2022-09-30T09:03:26;98642.06;;;11.27;94.48
45621;BME280;31345;51.522;10.702;2022-09-30T09:06:03;98644.84;;;11.72;95.04
45621;BME280;31345;51.522;10.702;2022-09-30T09:08:50;98644.47;;;11.65;92.54
45621;BME280;31345;51.522;10.702;2022-09-30T09:11:25;98650.09;;;11.72;92.34
45621;BME280;31345;51.522;10.702;2022-09-30T09:14:01;98646.53;;;11.95;92.40
45621;BME280;31345;51.522;10.702;2022-09-30T09:16:35;98645.56;;;11.97;91.04
45621;BME280;31345;51.522;10.702;2022-09-30T09:19:09;98641.00;;;12.10;91.56
45621;BME280;31345;51.522;10.702;2022-09-30T09:21:45;98637.38;;;12.34;89.72
45621;BME280;31345;51.522;10.702;2022-09-30T09:24:20;98629.19;;;12.27;88.71
45621;BME280;31345;51.522;10.702;2022-09-30T09:26:49;98635.53;;;12.02;90.62
45621;BME280;31345;51.522;10.702;2022-09-30T09:29:36;98632.34;;;12.42;87.48
45621;BME280;31345;51.522;10.702;2022-09-30T09:32:11;98622.88;;;12.63;87.31
45621;BME280;31345;51.522;10.702;2022-09-30T09:34:39;98616.72;;;12.73;86.72
45621;BME280;31345;51.522;10.702;2022-09-30T09:37:15;98612.25;;;13.07;86.37
45621;BME280;31345;51.522;10.702;2022-09-30T09:39:56;98614.84;;;13.07;84.53
45621;BME280;31345;51.522;10.702;2022-09-30T09:42:38;98617.72;;;13.25;85.29
45621;BME280;31345;51.522;10.702;2022-09-30T09:45:17;98620.75;;;12.99;86.98
45621;BME280;31345;51.522;10.702;2022-09-30T09:47:50;98613.91;;;12.65;88.25
45621;BME280;31345;51.522;10.702;2022-09-30T09:50:22;98613.25;;;13.37;86.81
45621;BME280;31345;51.522;10.702;2022-09-30T09:53:15;98609.69;;;13.48;83.15
45621;BME280;31345;51.522;10.702;2022-09-30T09:55:48;98611.09;;;13.52;81.12
45621;BME280;31345;51.522;10.702;2022-09-30T09:58:16;98612.00;;;13.62;82.41
45621;BME280;31345;51.522;10.702;2022-09-30T10:00:45;98609.72;;;13.89;79.88
45621;BME280;31345;51.522;10.702;2022-09-30T10:04:06;98612.75;;;13.84;78.61
45621;BME280;31345;51.522;10.702;2022-09-30T10:06:42;98611.09;;;13.83;78.42
45621;BME280;31345;51.522;10.702;2022-09-30T10:09:22;98614.88;;;14.00;81.49
45621;BME280;31345;51.522;10.702;2022-09-30T10:11:51;98608.41;;;14.24;80.50
45621;BME280;31345;51.522;10.702;2022-09-30T10:14:40;98610.66;;;13.47;82.48
45621;BME280;31345;51.522;10.702;2022-09-30T10:17:19;98602.09;;;13.86;80.37
45621;BME280;31345;51.522;10.702;2022-09-30T10:19:50;98603.84;;;14.46;82.29
45621;BME280;31345;51.522;10.702;2022-09-30T10:22:22;98591.38;;;14.19;75.80
45621;BME280;31345;51.522;10.702;2022-09-30T10:24:51;98590.00;;;14.44;75.84
45621;BME280;31345;51.522;10.702;2022-09-30T10:27:29;98590.28;;;14.71;74.61
45621;BME280;31345;51.522;10.702;2022-09-30T10:29:57;98592.44;;;14.85;74.46
45621;BME280;31345;51.522;10.702;2022-09-30T10:32:27;98596.47;;;14.99;75.06
45621;BME280;31345;51.522;10.702;2022-09-30T10:35:04;98590.31;;;15.28;73.56
45621;BME280;31345;51.522;10.702;2022-09-30T10:37:33;98590.91;;;15.12;70.14
45621;BME280;31345;51.522;10.702;2022-09-30T10:40:04;98595.44;;;15.68;71.14
45621;BME280;31345;51.522;10.702;2022-09-30T10:42:33;98594.88;;;15.26;72.40
45621;BME280;31345;51.522;10.702;2022-09-30T10:45:04;98596.56;;;15.17;73.62
45621;BME280;31345;51.522;10.702;2022-09-30T10:47:42;98590.78;;;14.94;71.72
45621;BME280;31345;51.522;10.702;2022-09-30T10:50:12;98601.31;;;14.94;72.55
45621;BME280;31345;51.522;10.702;2022-09-30T10:52:45;98591.84;;;15.31;71.68
45621;BME280;31345;51.522;10.702;2022-09-30T10:55:26;98591.34;;;15.46;70.81
45621;BME280;31345;51.522;10.702;2022-09-30T10:57:57;98593.25;;;15.53;72.25
45621;BME280;31345;51.522;10.702;2022-09-30T11:00:28;98602.19;;;15.99;70.25
45621;BME280;31345;51.522;10.702;2022-09-30T11:03:06;98601.16;;;16.10;70.30
45621;BME280;31345;51.522;10.702;2022-09-30T11:05:39;98602.81;;;16.11;71.34
45621;BME280;31345;51.522;10.702;2022-09-30T11:08:13;98597.66;;;16.09;68.89
45621;BME280;31345;51.522;10.702;2022-09-30T11:10:47;98598.22;;;16.13;70.83
45621;BME280;31345;51.522;10.702;2022-09-30T11:13:20;98603.09;;;16.07;71.04
45621;BME280;31345;51.522;10.702;2022-09-30T11:15:56;98596.28;;;16.51;68.59
45621;BME280;31345;51.522;10.702;2022-09-30T11:18:34;98593.03;;;16.76;68.18
45621;BME280;31345;51.522;10.702;2022-09-30T11:21:09;98585.03;;;16.13;65.53
45621;BME280;31345;51.522;10.702;2022-09-30T11:23:43;98590.41;;;16.39;68.58
45621;BME280;31345;51.522;10.702;2022-09-30T11:26:19;98591.16;;;16.31;66.54
45621;BME280;31345;51.522;10.702;2022-09-30T11:29:00;98588.75;;;16.20;67.52
45621;BME280;31345;51.522;10.702;2022-09-30T11:31:35;98594.34;;;15.89;65.11
45621;BME280;31345;51.522;10.702;2022-09-30T11:34:23;98602.44;;;16.05;65.86
45621;BME280;31345;51.522;10.702;2022-09-30T11:36:57;98595.50;;;16.04;63.82
45621;BME280;31345;51.522;10.702;2022-09-30T11:39:37;98589.38;;;16.04;63.18
45621;BME280;31345;51.522;10.702;2022-09-30T11:42:15;98583.22;;;16.13;61.59
45621;BME280;31345;51.522;10.702;2022-09-30T11:44:50;98584.09;;;15.86;63.74
45621;BME280;31345;51.522;10.702;2022-09-30T11:47:41;98599.56;;;16.17;68.09
45621;BME280;31345;51.522;10.702;2022-09-30T11:50:22;98588.19;;;15.98;65.46
45621;BME280;31345;51.522;10.702;2022-09-30T11:53:03;98584.34;;;16.11;68.65
45621;BME280;31345;51.522;10.702;2022-09-30T11:55:54;98588.56;;;15.75;65.24
45621;BME280;31345;51.522;10.702;2022-09-30T11:58:27;98588.06;;;15.72;68.64
45621;BME280;31345;51.522;10.702;2022-09-30T12:01:03;98590.56;;;15.91;68.24
45621;BME280;31345;51.522;10.702;2022-09-30T12:03:38;98585.03;;;16.13;68.04
45621;BME280;31345;51.522;10.702;2022-09-30T12:06:21;98581.47;;;15.58;68.54
45621;BME280;31345;51.522;10.702;2022-09-30T12:08:56;98582.38;;;15.00;69.12
45621;BME280;31345;51.522;10.702;2022-09-30T12:11:31;98588.47;;;14.71;72.41
45621;BME280;31345;51.522;10.702;2022-09-30T12:14:05;98589.72;;;14.37;72.96
45621;BME280;31345;51.522;10.702;2022-09-30T12:16:36;98595.13;;;14.36;72.59
45621;BME280;31345;51.522;10.702;2022-09-30T12:19:13;98590.28;;;14.51;73.29
45621;BME280;31345;51.522;10.702;2022-09-30T12:21:48;98584.16;;;14.70;70.34
45621;BME280;31345;51.522;10.702;2022-09-30T12:24:24;98594.97;;;14.57;72.34
45621;BME280;31345;51.522;10.702;2022-09-30T12:26:54;98593.75;;;14.32;75.21
45621;BME280;31345;51.522;10.702;2022-09-30T12:29:25;98593.31;;;14.46;72.55
45621;BME280;31345;51.522;10.702;2022-09-30T12:32:30;98583.75;;;14.85;70.06
45621;BME280;31345;51.522;10.702;2022-09-30T12:35:13;98580.28;;;14.84;67.89
45621;BME280;31345;51.522;10.702;2022-09-30T12:37:57;98583.44;;;14.98;67.30
45621;BME280;31345;51.522;10.702;2022-09-30T12:40:42;98581.50;;;15.10;63.37
45621;BME280;31345;51.522;10.702;2022-09-30T12:46:18;98585.72;;;15.30;65.61
45621;BME280;31345;51.522;10.702;2022-09-30T12:48:50;98578.09;;;15.27;62.88
45621;BME280;31345;51.522;10.702;2022-09-30T12:51:24;98577.81;;;15.30;64.01
45621;BME280;31345;51.522;10.702;2022-09-30T12:53:59;98587.59;;;15.10;59.85
45621;BME280;31345;51.522;10.702;2022-09-30T12:56:30;98573.84;;;15.54;61.03
45621;BME280;31345;51.522;10.702;2022-09-30T12:58:59;98576.00;;;15.69;59.89
45621;BME280;31345;51.522;10.702;2022-09-30T13:01:30;98577.88;;;15.11;62.99
45621;BME280;31345;51.522;10.702;2022-09-30T13:04:28;98577.09;;;14.90;62.43
45621;BME280;31345;51.522;10.702;2022-09-30T13:07:18;98574.69;;;15.17;62.58
45621;BME280;31345;51.522;10.702;2022-09-30T13:10:00;98573.84;;;15.16;59.65
45621;BME280;31345;51.522;10.702;2022-09-30T13:12:40;98572.06;;;14.97;60.04
45621;BME280;31345;51.522;10.702;2022-09-30T13:15:37;98572.66;;;15.01;58.11
45621;BME280;31345;51.522;10.702;2022-09-30T13:21:19;98575.19;;;15.30;59.55
45621;BME280;31345;51.522;10.702;2022-09-30T13:23:48;98582.16;;;15.22;61.99
45621;BME280;31345;51.522;10.702;2022-09-30T13:26:39;98580.13;;;14.96;58.62
45621;BME280;31345;51.522;10.702;2022-09-30T13:29:26;98583.91;;;14.73;60.58
45621;BME280;31345;51.522;10.702;2022-09-30T13:32:11;98581.53;;;14.70;60.99